Los Angeles, California
Traffic Map
Current Weather Conditions
Los Angeles, California
Clear
Clear
27°
Feels Like: 27°
Wind Chill: 27° Ceiling: Unl
Heat Index: 27° Visibility: 10mi
Dew Point: 15° Wind: 7mph
Humidity: 48% Direction: 280° (W)
Pressure: 30.03in Gusts: 0mph
Raw Report DataKCQT 222047Z AUTO 28006KT 10SM CLR 27/15 A3003 RMK AO2 SLP165 T02670150 57004
Traffic Incident Summary
Active as of:
Severity:
Category:
InformationThere was an issue retrieving the traffic information for this location. Please try a different location or try again shortly.
Advertisements
Track Severe Weather on mobile